createdAt,value
2018-08-07T00:00:43.213Z,977.5
2018-08-07T00:01:47.325Z,977.5
2018-08-07T00:02:49.707Z,977.5
2018-08-07T00:03:50.914Z,977.6
2018-08-07T00:04:52.067Z,977.5
2018-08-07T00:05:53.321Z,977.5
2018-08-07T00:06:54.575Z,977.5
2018-08-07T00:07:55.782Z,977.4
2018-08-07T00:09:00.211Z,977.4
2018-08-07T00:10:01.378Z,977.5
2018-08-07T00:11:02.574Z,977.4
2018-08-07T00:12:03.986Z,977.3
2018-08-07T00:13:05.201Z,977.3
2018-08-07T00:14:06.563Z,977.3
2018-08-07T00:15:10.003Z,977.4
2018-08-07T00:16:11.176Z,977.2
2018-08-07T00:17:12.370Z,977.3
2018-08-07T00:18:13.595Z,977.3
2018-08-07T00:19:15.262Z,977.4
2018-08-07T00:20:16.435Z,977.3
2018-08-07T00:21:17.581Z,977.3
2018-08-07T00:22:18.756Z,977.3
2018-08-07T00:23:19.938Z,977.3
2018-08-07T00:24:21.131Z,977.3
2018-08-07T00:25:22.304Z,977.3
2018-08-07T00:26:23.528Z,977.4
2018-08-07T00:27:24.685Z,977.3
2018-08-07T00:28:25.847Z,977.3
2018-08-07T00:29:27.034Z,977.4
2018-08-07T00:30:28.196Z,977.4
2018-08-07T00:31:29.369Z,977.4
2018-08-07T00:32:31.048Z,977.4
2018-08-07T00:33:33.130Z,977.4
2018-08-07T00:34:34.325Z,977.5
2018-08-07T00:35:35.693Z,977.4
2018-08-07T00:36:37.309Z,977.4
2018-08-07T00:37:38.539Z,977.2
2018-08-07T00:38:39.702Z,977.3
2018-08-07T00:39:43.525Z,977.3
2018-08-07T00:40:44.673Z,977.3
2018-08-07T00:41:45.842Z,977.2
2018-08-07T00:42:49.991Z,977.3
2018-08-07T00:43:51.161Z,977.3
2018-08-07T00:44:52.615Z,977.2
2018-08-07T00:45:53.771Z,977.1
2018-08-07T00:46:54.944Z,977.3
2018-08-07T00:47:56.134Z,977.2
2018-08-07T00:48:57.287Z,977.2
2018-08-07T00:49:58.457Z,977.2
2018-08-07T00:50:59.612Z,977.2
2018-08-07T00:52:00.796Z,977.2
2018-08-07T00:53:01.998Z,977.3
2018-08-07T00:54:03.397Z,977.2
2018-08-07T00:55:04.602Z,977.3
2018-08-07T00:56:05.778Z,977.1
2018-08-07T00:57:06.998Z,977.1
2018-08-07T00:58:08.243Z,977.2
2018-08-07T00:59:09.402Z,977.3
2018-08-07T01:00:11.232Z,977.3
2018-08-07T01:01:12.394Z,977.1
2018-08-07T01:02:13.697Z,977.2
2018-08-07T01:03:15.317Z,977.2
2018-08-07T01:04:16.516Z,977.2
2018-08-07T01:05:17.930Z,977.2
2018-08-07T01:06:24.477Z,977.2
2018-08-07T01:07:26.608Z,977.2
2018-08-07T01:08:27.777Z,977.1
2018-08-07T01:09:29.297Z,977.1
2018-08-07T01:10:30.606Z,977
2018-08-07T01:11:31.783Z,977.2
2018-08-07T01:12:32.969Z,977.3
2018-08-07T01:13:34.159Z,977.1
2018-08-07T01:14:35.355Z,977.3
2018-08-07T01:15:36.556Z,977.1
2018-08-07T01:16:38.722Z,977
2018-08-07T01:17:39.876Z,977.1
2018-08-07T01:18:41.055Z,977.2
2018-08-07T01:19:42.363Z,977.1
2018-08-07T01:20:43.557Z,977.1
2018-08-07T01:21:44.712Z,977.1
2018-08-07T01:22:45.872Z,977
2018-08-07T01:23:47.021Z,977
2018-08-07T01:24:48.304Z,977.1
2018-08-07T01:25:49.500Z,977.1
2018-08-07T01:26:52.110Z,977
2018-08-07T01:27:53.277Z,977
2018-08-07T01:28:54.467Z,977.1
2018-08-07T01:29:55.625Z,977.2
2018-08-07T01:30:56.832Z,977.2
2018-08-07T01:31:58.011Z,977
2018-08-07T01:32:59.338Z,977
2018-08-07T01:34:00.524Z,976.8
2018-08-07T01:35:01.702Z,977.1
2018-08-07T01:36:03.187Z,977
2018-08-07T01:37:04.543Z,977
2018-08-07T01:38:05.725Z,977
2018-08-07T01:39:06.880Z,976.8
2018-08-07T01:40:08.087Z,976.8
2018-08-07T01:41:09.525Z,976.8
2018-08-07T01:42:11.371Z,976.8
2018-08-07T01:43:12.645Z,976.8
2018-08-07T01:44:21.421Z,976.8
2018-08-07T01:45:23.913Z,976.9
2018-08-07T01:46:25.384Z,976.9
2018-08-07T01:47:26.559Z,977
2018-08-07T01:48:27.748Z,976.9
2018-08-07T01:49:28.901Z,976.8
2018-08-07T01:50:30.053Z,976.7
2018-08-07T01:51:31.311Z,976.7
2018-08-07T01:52:33.010Z,976.7
2018-08-07T01:53:37.151Z,976.6
2018-08-07T01:54:38.402Z,976.8
2018-08-07T01:55:39.546Z,976.8
2018-08-07T01:56:40.889Z,976.9
2018-08-07T01:57:42.048Z,976.8
2018-08-07T01:58:43.219Z,976.6
2018-08-07T01:59:44.381Z,976.6
2018-08-07T02:00:45.549Z,976.6
2018-08-07T02:01:46.783Z,976.6
2018-08-07T02:02:48.172Z,976.6
2018-08-07T02:03:49.330Z,976.7
2018-08-07T02:04:50.583Z,976.7
2018-08-07T02:05:52.030Z,976.8
2018-08-07T02:06:53.195Z,976.8
2018-08-07T02:07:55.270Z,976.7
2018-08-07T02:08:56.682Z,976.6
2018-08-07T02:09:57.834Z,976.7
2018-08-07T02:10:59.269Z,976.8
2018-08-07T02:12:00.641Z,976.9
2018-08-07T02:13:01.875Z,976.9
2018-08-07T02:14:03.025Z,976.9
2018-08-07T02:15:04.186Z,976.8
2018-08-07T02:16:05.371Z,976.9
2018-08-07T02:17:06.569Z,977
2018-08-07T02:18:07.720Z,976.8
2018-08-07T02:19:08.946Z,976.7
2018-08-07T02:20:10.107Z,976.7
2018-08-07T02:21:11.257Z,976.6
2018-08-07T02:22:12.596Z,976.7
2018-08-07T02:23:13.945Z,976.8
2018-08-07T02:24:15.120Z,976.7
2018-08-07T02:25:16.460Z,976.7
2018-08-07T02:26:17.682Z,976.7
2018-08-07T02:27:21.479Z,976.8
2018-08-07T02:28:23.441Z,976.8
2018-08-07T02:29:25.138Z,976.6
2018-08-07T02:30:28.123Z,976.6
2018-08-07T02:31:29.335Z,976.5
2018-08-07T02:32:30.638Z,976.5
2018-08-07T02:33:31.821Z,976.5
2018-08-07T02:34:33.066Z,976.6
2018-08-07T02:35:34.207Z,976.6
2018-08-07T02:36:35.373Z,976.6
2018-08-07T02:37:36.786Z,976.7
2018-08-07T02:38:38.058Z,976.7
2018-08-07T02:39:39.312Z,976.6
2018-08-07T02:40:40.629Z,976.7
2018-08-07T02:41:41.819Z,976.6
2018-08-07T02:42:43.075Z,976.5
2018-08-07T02:43:44.241Z,976.6
2018-08-07T02:44:45.447Z,976.7
2018-08-07T02:45:46.727Z,976.8
2018-08-07T02:46:47.946Z,976.8
2018-08-07T02:47:49.413Z,976.8
2018-08-07T02:48:50.635Z,976.7
2018-08-07T02:49:51.808Z,976.8
2018-08-07T02:50:52.969Z,976.8
2018-08-07T02:51:54.135Z,976.7
2018-08-07T02:52:55.341Z,976.6
2018-08-07T02:53:56.505Z,976.6
2018-08-07T02:54:57.674Z,976.5
2018-08-07T02:55:58.829Z,976.5
2018-08-07T02:56:59.999Z,976.5
2018-08-07T02:58:01.301Z,976.5
2018-08-07T02:59:02.588Z,976.7
2018-08-07T03:00:04.397Z,976.6
2018-08-07T03:01:05.571Z,976.3
2018-08-07T03:02:06.835Z,976.7
2018-08-07T03:03:08.054Z,976.6
2018-08-07T03:04:09.238Z,976.7
2018-08-07T03:05:10.425Z,976.6
2018-08-07T03:06:11.647Z,976.8
2018-08-07T03:07:12.833Z,976.7
2018-08-07T03:08:14.154Z,976.7
2018-08-07T03:09:15.466Z,976.6
2018-08-07T03:10:16.677Z,976.7
2018-08-07T03:11:17.863Z,976.6
2018-08-07T03:12:19.052Z,976.6
2018-08-07T03:13:20.356Z,976.7
2018-08-07T03:14:21.523Z,976.6
2018-08-07T03:15:22.704Z,976.6
2018-08-07T03:16:23.912Z,976.6
2018-08-07T03:17:25.177Z,976.6
2018-08-07T03:18:26.451Z,976.8
2018-08-07T03:19:27.639Z,976.8
2018-08-07T03:20:31.204Z,976.8
2018-08-07T03:21:32.435Z,976.7
2018-08-07T03:22:33.614Z,976.6
2018-08-07T03:23:34.815Z,976.6
2018-08-07T03:24:36.026Z,976.7
2018-08-07T03:25:37.178Z,976.6
2018-08-07T03:26:38.402Z,976.8
2018-08-07T03:27:39.600Z,976.7
2018-08-07T03:28:40.858Z,976.6
2018-08-07T03:29:42.026Z,976.6
2018-08-07T03:30:43.194Z,976.6
2018-08-07T03:31:44.355Z,976.6
2018-08-07T03:32:45.616Z,976.6
2018-08-07T03:33:46.821Z,976.7
2018-08-07T03:34:48.018Z,976.6
2018-08-07T03:35:49.166Z,976.7
2018-08-07T03:36:50.404Z,976.7
2018-08-07T03:37:51.607Z,976.7
2018-08-07T03:38:52.786Z,976.6
2018-08-07T03:39:53.947Z,976.7
2018-08-07T03:40:55.138Z,976.6
2018-08-07T03:41:56.297Z,976.7
2018-08-07T03:42:57.475Z,976.5
2018-08-07T03:43:58.789Z,976.6
2018-08-07T03:44:59.937Z,976.7
2018-08-07T03:46:01.146Z,976.6
2018-08-07T03:47:02.330Z,976.6
2018-08-07T03:48:03.518Z,976.7
2018-08-07T03:49:04.794Z,976.6
2018-08-07T03:50:06.021Z,976.7
2018-08-07T03:51:10.185Z,976.7
2018-08-07T03:52:11.381Z,976.7
2018-08-07T03:53:12.664Z,976.6
2018-08-07T03:54:14.141Z,976.7
2018-08-07T03:55:15.486Z,976.6
2018-08-07T03:56:16.642Z,976.7
2018-08-07T03:57:17.847Z,976.6
2018-08-07T03:58:19.310Z,976.8
2018-08-07T03:59:20.525Z,976.8
2018-08-07T04:00:21.711Z,976.8
2018-08-07T04:01:22.885Z,976.8
2018-08-07T04:02:26.471Z,976.8
2018-08-07T04:03:27.627Z,976.9
2018-08-07T04:04:28.809Z,976.8
2018-08-07T04:05:29.980Z,976.7
2018-08-07T04:06:31.156Z,976.7
2018-08-07T04:07:32.454Z,976.6
2018-08-07T04:08:33.625Z,976.6
2018-08-07T04:09:34.830Z,976.6
2018-08-07T04:10:36.014Z,976.7
2018-08-07T04:11:37.298Z,976.6
2018-08-07T04:12:38.382Z,976.7
2018-08-07T04:13:39.604Z,976.7
2018-08-07T04:14:41.122Z,976.9
2018-08-07T04:15:44.707Z,976.9
2018-08-07T04:16:46.608Z,976.7
2018-08-07T04:17:50.247Z,976.8
2018-08-07T04:18:51.468Z,976.7
2018-08-07T04:19:52.697Z,976.5
2018-08-07T04:20:54.041Z,976.9
2018-08-07T04:21:55.211Z,976.6
2018-08-07T04:22:56.422Z,976.8
2018-08-07T04:23:57.629Z,976.9
2018-08-07T04:24:58.846Z,976.8
2018-08-07T04:26:00.052Z,976.9
2018-08-07T04:27:01.715Z,976.9
2018-08-07T04:28:03.103Z,976.7
2018-08-07T04:29:04.280Z,976.6
2018-08-07T04:30:05.537Z,976.7
2018-08-07T04:31:06.737Z,976.8
2018-08-07T04:32:07.933Z,977
2018-08-07T04:33:09.153Z,976.6
2018-08-07T04:34:10.359Z,976.8
2018-08-07T04:35:11.611Z,976.8
2018-08-07T04:36:12.886Z,976.7
2018-08-07T04:37:20.135Z,976.8
2018-08-07T04:38:21.306Z,976.9
2018-08-07T04:39:22.646Z,976.8
2018-08-07T04:40:23.839Z,977
2018-08-07T04:41:25.846Z,976.6
2018-08-07T04:42:27.022Z,976.9
2018-08-07T04:43:30.618Z,977
2018-08-07T04:44:31.849Z,976.9
2018-08-07T04:45:33.076Z,977
2018-08-07T04:46:34.246Z,976.9
2018-08-07T04:47:35.446Z,977
2018-08-07T04:48:36.951Z,976.9
2018-08-07T04:49:38.171Z,977
2018-08-07T04:50:39.392Z,977
2018-08-07T04:51:40.606Z,977
2018-08-07T04:52:42.036Z,977
2018-08-07T04:53:43.558Z,977
2018-08-07T04:54:44.861Z,977
2018-08-07T04:55:46.079Z,977
2018-08-07T04:56:47.357Z,977
2018-08-07T04:57:48.836Z,977.1
2018-08-07T04:58:50.007Z,977
2018-08-07T05:01:00.814Z,977
2018-08-07T05:02:04.732Z,977
2018-08-07T05:03:06.134Z,977
2018-08-07T05:04:07.443Z,977
2018-08-07T05:05:08.643Z,977
2018-08-07T05:06:09.909Z,977
2018-08-07T05:07:11.161Z,977
2018-08-07T05:08:12.398Z,976.9
2018-08-07T05:09:13.680Z,977
2018-08-07T05:10:14.931Z,977
2018-08-07T05:11:19.914Z,977
2018-08-07T05:12:24.539Z,976.9
2018-08-07T05:13:25.764Z,976.9
2018-08-07T05:14:27.447Z,976.9
2018-08-07T05:15:28.805Z,976.9
2018-08-07T05:16:30.059Z,977
2018-08-07T05:17:33.452Z,976.9
2018-08-07T05:18:35.330Z,976.9
2018-08-07T05:19:36.509Z,977
2018-08-07T05:20:37.692Z,976.9
2018-08-07T05:21:38.895Z,976.9
2018-08-07T05:22:40.277Z,976.8
2018-08-07T05:23:41.398Z,976.8
2018-08-07T05:24:42.607Z,976.7
2018-08-07T05:25:45.991Z,976.8
2018-08-07T05:26:47.287Z,976.8
2018-08-07T05:27:48.458Z,976.8
2018-08-07T05:28:49.793Z,976.8
2018-08-07T05:29:50.909Z,976.8
2018-08-07T05:30:52.325Z,976.8
2018-08-07T05:31:54.156Z,976.9
2018-08-07T05:32:55.310Z,976.9
2018-08-07T05:33:56.838Z,976.8
2018-08-07T05:34:58.066Z,976.8
2018-08-07T05:35:59.422Z,976.8
2018-08-07T05:37:00.607Z,976.7
2018-08-07T05:38:01.832Z,976.7
2018-08-07T05:39:03.082Z,976.8
2018-08-07T05:40:04.785Z,976.8
2018-08-07T05:41:05.978Z,976.8
2018-08-07T05:42:08.060Z,976.9
2018-08-07T05:43:10.536Z,976.9
2018-08-07T05:44:11.773Z,976.8
2018-08-07T05:45:13.072Z,976.8
2018-08-07T05:46:14.402Z,976.9
2018-08-07T05:47:17.474Z,976.9
2018-08-07T05:48:18.649Z,976.9
2018-08-07T05:49:19.899Z,976.9
2018-08-07T05:50:21.277Z,976.8
2018-08-07T05:51:22.983Z,976.8
2018-08-07T05:52:24.825Z,976.8
2018-08-07T05:53:26.036Z,976.7
2018-08-07T05:54:27.373Z,976.7
2018-08-07T05:55:28.827Z,976.7
2018-08-07T05:56:30.063Z,976.6
2018-08-07T05:57:31.410Z,976.8
2018-08-07T05:58:32.640Z,976.8
2018-08-07T05:59:33.975Z,976.8
2018-08-07T06:00:35.154Z,976.8
2018-08-07T06:01:36.342Z,976.7
2018-08-07T06:02:38.680Z,976.7
2018-08-07T06:03:40.426Z,976.7
2018-08-07T06:04:41.584Z,976.8
2018-08-07T06:05:42.768Z,976.7
2018-08-07T06:06:44.278Z,976.7
2018-08-07T06:07:45.565Z,976.7
2018-08-07T06:08:47.092Z,976.7
2018-08-07T06:09:48.290Z,976.7
2018-08-07T06:10:49.618Z,976.7
2018-08-07T06:11:50.782Z,976.8
2018-08-07T06:12:52.079Z,977
2018-08-07T06:13:53.271Z,976.8
2018-08-07T06:14:54.502Z,976.8
2018-08-07T06:15:55.666Z,976.7
2018-08-07T06:16:57.618Z,976.8
2018-08-07T06:17:58.894Z,976.8
2018-08-07T06:19:00.251Z,976.7
2018-08-07T06:20:01.579Z,976.8
2018-08-07T06:21:02.766Z,976.8
2018-08-07T06:22:04.207Z,976.8
2018-08-07T06:23:05.696Z,976.8
2018-08-07T06:24:06.922Z,976.8
2018-08-07T06:25:08.135Z,976.8
2018-08-07T06:26:09.347Z,976.8
2018-08-07T06:27:10.568Z,976.7
2018-08-07T06:28:11.796Z,976.7
2018-08-07T06:29:12.998Z,976.7
2018-08-07T06:30:14.338Z,976.7
2018-08-07T06:31:19.359Z,976.6
2018-08-07T06:32:20.610Z,976.7
2018-08-07T06:33:21.876Z,976.7
2018-08-07T06:34:23.088Z,976.7
2018-08-07T06:35:24.384Z,976.7
2018-08-07T06:36:25.623Z,976.8
2018-08-07T06:37:27.205Z,976.8
2018-08-07T06:38:28.410Z,976.8
2018-08-07T06:39:29.870Z,976.8
2018-08-07T06:40:31.156Z,976.8
2018-08-07T06:41:32.330Z,976.8
2018-08-07T06:42:33.510Z,976.7
2018-08-07T06:43:34.730Z,976.8
2018-08-07T06:44:35.903Z,976.6
2018-08-07T06:45:37.102Z,976.7
2018-08-07T06:46:38.393Z,976.6
2018-08-07T06:47:39.629Z,976.8
2018-08-07T06:48:40.869Z,976.7
2018-08-07T06:49:42.058Z,976.8
2018-08-07T06:50:43.328Z,976.7
2018-08-07T06:51:44.629Z,976.7
2018-08-07T06:52:45.877Z,976.7
2018-08-07T06:53:47.093Z,976.7
2018-08-07T06:54:50.681Z,976.8
2018-08-07T06:55:53.102Z,977.1
2018-08-07T06:56:54.421Z,978.4
2018-08-07T06:57:55.641Z,977.1
2018-08-07T06:58:56.910Z,977.5
2018-08-07T06:59:58.232Z,978.1
2018-08-07T07:00:59.807Z,978.6
2018-08-07T07:02:04.026Z,977.4
2018-08-07T07:03:05.241Z,976.7
2018-08-07T07:04:06.527Z,976.6
2018-08-07T07:05:07.787Z,976.7
2018-08-07T07:06:09.425Z,978.3
2018-08-07T07:07:10.686Z,978.5
2018-08-07T07:08:12.322Z,977.3
2018-08-07T07:09:13.685Z,979
2018-08-07T07:10:14.978Z,978.5
2018-08-07T07:11:19.163Z,978.2
2018-08-07T07:12:24.141Z,976.8
2018-08-07T07:13:27.202Z,976.5
2018-08-07T07:14:28.398Z,976.5
2018-08-07T07:15:29.587Z,976.5
2018-08-07T07:16:30.774Z,976.6
2018-08-07T07:17:36.369Z,976.6
2018-08-07T07:18:40.683Z,976.6
2018-08-07T07:19:42.096Z,976.7
2018-08-07T07:20:43.327Z,976.9
2018-08-07T07:21:47.342Z,976.8
2018-08-07T07:22:48.573Z,976.7
2018-08-07T07:23:49.802Z,976.8
2018-08-07T07:24:53.825Z,977
2018-08-07T07:25:55.366Z,976.9
2018-08-07T07:26:57.952Z,977.1
2018-08-07T07:27:59.114Z,978.5
2018-08-07T07:29:00.588Z,977.3
2018-08-07T07:30:04.925Z,977.2
2018-08-07T07:31:14.508Z,977.5
2018-08-07T07:32:15.801Z,977
2018-08-07T07:33:19.812Z,976.9
2018-08-07T07:34:21.075Z,976.9
2018-08-07T07:35:22.459Z,976.9
2018-08-07T07:36:23.674Z,976.9
2018-08-07T07:37:25.167Z,976.9
2018-08-07T07:38:29.577Z,978.1
2018-08-07T07:39:30.799Z,977.6
2018-08-07T07:40:32.055Z,977
2018-08-07T07:41:33.346Z,977
2018-08-07T07:42:35.050Z,977
2018-08-07T07:43:36.290Z,977
2018-08-07T07:44:37.707Z,977.1
2018-08-07T07:45:39.950Z,977.4
2018-08-07T07:46:46.584Z,977.1
2018-08-07T07:47:50.092Z,977.1
2018-08-07T07:48:51.302Z,977
2018-08-07T07:49:52.519Z,977
2018-08-07T07:50:53.769Z,976.9
2018-08-07T07:51:55.615Z,977
2018-08-07T07:52:58.024Z,977
2018-08-07T07:53:59.269Z,977.2
2018-08-07T07:55:00.450Z,977.3
2018-08-07T07:56:01.713Z,977.3
2018-08-07T07:57:04.731Z,977.6
2018-08-07T07:58:19.794Z,977.5
2018-08-07T07:59:21.205Z,977.5
2018-08-07T08:00:22.370Z,977.4
2018-08-07T08:01:26.006Z,977.6
2018-08-07T08:02:27.213Z,977.5
2018-08-07T08:03:29.204Z,977.3
2018-08-07T08:04:31.370Z,977.4
2018-08-07T08:05:32.629Z,977.6
2018-08-07T08:06:35.127Z,977.5
2018-08-07T08:07:36.334Z,977.9
2018-08-07T08:08:37.550Z,977.6
2018-08-07T08:09:40.958Z,977.3
2018-08-07T08:10:42.166Z,977.4
2018-08-07T08:11:43.409Z,977.5
2018-08-07T08:12:46.924Z,977.8
2018-08-07T08:13:48.694Z,977.6
2018-08-07T08:14:49.863Z,978
2018-08-07T08:15:51.326Z,980.1
2018-08-07T08:16:52.620Z,978.5
2018-08-07T08:17:53.837Z,977.8
2018-08-07T08:18:55.149Z,977.7
2018-08-07T08:19:56.323Z,977.5
2018-08-07T08:20:57.522Z,977.6
2018-08-07T08:22:02.217Z,977.1
2018-08-07T08:23:03.396Z,977
2018-08-07T08:24:04.685Z,977.6
2018-08-07T08:25:08.448Z,977.3
2018-08-07T08:26:09.727Z,977.2
2018-08-07T08:27:13.138Z,977.3
2018-08-07T08:28:14.850Z,977.2
2018-08-07T08:29:19.115Z,977.3
2018-08-07T08:30:21.174Z,977.8
2018-08-07T08:31:22.443Z,977.3
2018-08-07T08:32:23.687Z,977.5
2018-08-07T08:33:25.194Z,977.5
2018-08-07T08:34:26.410Z,977.7
2018-08-07T08:35:27.818Z,977.7
2018-08-07T08:36:29.161Z,977.5
2018-08-07T08:37:30.455Z,977.6
2018-08-07T08:38:31.692Z,977.4
2018-08-07T08:39:32.914Z,977.5
2018-08-07T08:40:34.148Z,977.7
2018-08-07T08:41:39.202Z,977.7
2018-08-07T08:42:44.387Z,977.6
2018-08-07T08:43:45.702Z,978.7
2018-08-07T08:44:49.637Z,978.1
2018-08-07T08:45:50.857Z,977.7
2018-08-07T08:46:52.297Z,977.5
2018-08-07T08:47:56.016Z,977.8
2018-08-07T08:49:00.504Z,977.9
2018-08-07T08:50:06.374Z,978
2018-08-07T08:51:11.632Z,977.4
2018-08-07T08:52:24.694Z,977.6
2018-08-07T08:53:29.759Z,977.4
2018-08-07T08:54:34.408Z,977.3
2018-08-07T08:55:35.959Z,977.2
2018-08-07T08:56:40.035Z,978.1
2018-08-07T08:57:41.797Z,977.5
2018-08-07T08:58:43.252Z,977.4
2018-08-07T08:59:44.790Z,977.9
2018-08-07T09:00:49.177Z,978
2018-08-07T09:01:50.480Z,977.4
2018-08-07T09:02:52.445Z,977.4
2018-08-07T09:03:53.797Z,977.4
2018-08-07T09:05:23.704Z,977.3
2018-08-07T09:06:28.065Z,977
2018-08-07T09:07:30.282Z,978.1
2018-08-07T09:08:31.828Z,977.4
2018-08-07T09:09:33.358Z,977.2
2018-08-07T09:10:35.909Z,977.9
2018-08-07T09:11:37.637Z,977.4
2018-08-07T09:12:39.190Z,976.9
2018-08-07T09:13:40.478Z,977.1
2018-08-07T09:14:41.868Z,977.2
2018-08-07T09:15:43.226Z,977.1
2018-08-07T09:16:44.577Z,977.3
2018-08-07T09:17:49.007Z,977.1
2018-08-07T09:18:50.777Z,976.9
2018-08-07T09:19:52.089Z,977
2018-08-07T09:20:53.395Z,977
2018-08-07T09:21:56.098Z,977.1
2018-08-07T09:23:00.300Z,976.6
2018-08-07T09:24:01.777Z,976.8
2018-08-07T09:25:03.314Z,976.9
2018-08-07T09:26:05.275Z,977
2018-08-07T09:27:06.735Z,977.2
2018-08-07T09:28:11.523Z,977
2018-08-07T09:29:15.238Z,977
2018-08-07T09:30:18.539Z,977.2
2018-08-07T09:31:19.889Z,977.2
2018-08-07T09:32:23.649Z,977.2
2018-08-07T09:33:24.994Z,976.9
2018-08-07T09:34:26.596Z,977.1
2018-08-07T09:35:30.404Z,977.3
2018-08-07T09:36:31.729Z,977.5
2018-08-07T09:37:33.055Z,977.5
2018-08-07T09:38:34.373Z,977
2018-08-07T09:39:36.289Z,976.6
2018-08-07T09:40:39.094Z,976.8
2018-08-07T09:41:40.440Z,976.9
2018-08-07T09:42:41.839Z,977
2018-08-07T09:43:43.761Z,977.5
2018-08-07T09:44:46.373Z,977.3
2018-08-07T09:45:48.015Z,977.6
2018-08-07T09:46:49.712Z,977.3
2018-08-07T09:47:53.372Z,977
2018-08-07T09:48:56.306Z,976.6
2018-08-07T09:49:57.720Z,977
2018-08-07T09:50:59.228Z,976.6
2018-08-07T09:52:00.501Z,976.6
2018-08-07T09:53:01.968Z,976.4
2018-08-07T09:54:03.785Z,976.7
2018-08-07T09:55:05.522Z,976.8
2018-08-07T09:56:09.756Z,977
2018-08-07T09:57:11.156Z,976.9
2018-08-07T09:58:12.550Z,976.4
2018-08-07T09:59:14.198Z,977
2018-08-07T10:00:18.622Z,976.9
2018-08-07T10:01:19.839Z,976.8
2018-08-07T10:02:21.082Z,976.5
2018-08-07T10:03:22.266Z,976.4
2018-08-07T10:04:26.453Z,976.6
2018-08-07T10:05:30.340Z,976.8
2018-08-07T10:06:33.939Z,976.8
2018-08-07T10:07:35.292Z,976.8
2018-08-07T10:08:37.009Z,976.8
2018-08-07T10:09:38.305Z,976.7
2018-08-07T10:10:39.576Z,976.5
2018-08-07T10:11:41.328Z,976.5
2018-08-07T10:12:42.535Z,976.2
2018-08-07T10:13:45.374Z,976.1
2018-08-07T10:14:46.769Z,976.1
2018-08-07T10:15:52.119Z,976
2018-08-07T10:16:54.978Z,976
2018-08-07T10:17:56.329Z,976
2018-08-07T10:18:57.582Z,976.2
2018-08-07T10:19:58.814Z,976
2018-08-07T10:21:00.342Z,976.4
2018-08-07T10:22:01.673Z,976.5
2018-08-07T10:23:03.290Z,976.4
2018-08-07T10:24:04.886Z,976.2
2018-08-07T10:25:06.201Z,975.9
2018-08-07T10:26:07.430Z,976
2018-08-07T10:27:08.692Z,976.2
2018-08-07T10:28:10.905Z,976
2018-08-07T10:29:12.159Z,975.8
2018-08-07T10:30:16.475Z,975.7
2018-08-07T10:31:17.729Z,976
2018-08-07T10:32:25.241Z,976.2
2018-08-07T10:33:26.721Z,976
2018-08-07T10:34:32.115Z,976.1
2018-08-07T10:35:36.651Z,975.6
2018-08-07T10:36:37.882Z,975.9
2018-08-07T10:37:39.345Z,976.2
2018-08-07T10:38:41.382Z,976.2
2018-08-07T10:39:45.214Z,975.7
2018-08-07T10:40:46.603Z,975.8
2018-08-07T10:41:48.126Z,975.9
2018-08-07T10:42:52.482Z,976
2018-08-07T10:43:58.245Z,975.9
2018-08-07T10:45:02.710Z,975.8
2018-08-07T10:46:04.033Z,975.7
2018-08-07T10:47:16.453Z,975.7
2018-08-07T10:48:20.028Z,975.6
2018-08-07T10:49:24.386Z,975.7
2018-08-07T10:50:25.786Z,975.8
2018-08-07T10:51:32.612Z,975.9
2018-08-07T10:52:33.939Z,975.9
2018-08-07T10:53:35.252Z,975.7
2018-08-07T10:54:38.280Z,975.8
2018-08-07T10:55:48.656Z,975.9
2018-08-07T10:56:50.324Z,976.1
2018-08-07T10:57:54.111Z,976
2018-08-07T10:58:58.282Z,975.8
2018-08-07T10:59:59.803Z,975.7
2018-08-07T11:01:08.874Z,975.7
2018-08-07T11:02:16.413Z,975.6
2018-08-07T11:03:18.135Z,975.7
2018-08-07T11:04:22.376Z,975.8
2018-08-07T11:05:24.696Z,975.7
2018-08-07T11:06:26.364Z,975.6
2018-08-07T11:07:27.606Z,975.5
2018-08-07T11:08:29.125Z,975.6
2018-08-07T11:09:33.133Z,975.6
2018-08-07T11:10:39.202Z,975.7
2018-08-07T11:11:48.714Z,975.8
2018-08-07T11:12:52.942Z,975.8
2018-08-07T11:13:59.984Z,975.8
2018-08-07T11:15:01.727Z,975.5
2018-08-07T11:16:05.010Z,975.8
2018-08-07T11:17:07.581Z,975.6
2018-08-07T11:18:16.775Z,975.6
2018-08-07T11:19:22.363Z,975.8
2018-08-07T11:20:23.575Z,975.8
2018-08-07T11:21:24.755Z,975.8
2018-08-07T11:22:35.221Z,975.6
2018-08-07T11:23:36.611Z,975.5
2018-08-07T11:24:40.264Z,975.3
2018-08-07T11:25:42.526Z,975.5
2018-08-07T11:26:46.398Z,975.6
2018-08-07T11:27:49.404Z,975.6
2018-08-07T11:28:52.805Z,975.6
2018-08-07T11:29:54.583Z,975.6
2018-08-07T11:30:56.259Z,975.4
2018-08-07T11:31:57.729Z,975.2
2018-08-07T11:32:59.295Z,975.6
2018-08-07T11:34:00.666Z,975.8
2018-08-07T11:35:01.957Z,975.9
2018-08-07T11:36:03.432Z,975.7
2018-08-07T11:37:05.306Z,975.7
2018-08-07T11:38:07.587Z,975.6
2018-08-07T11:39:08.827Z,975.6
2018-08-07T11:40:16.245Z,975.7
2018-08-07T11:41:17.495Z,975.8
2018-08-07T11:42:19.018Z,976
2018-08-07T11:43:22.326Z,976
2018-08-07T11:44:23.647Z,975.7
2018-08-07T11:45:29.719Z,975.4
2018-08-07T11:46:33.681Z,975.5
2018-08-07T11:47:34.921Z,975.6
2018-08-07T11:48:41.187Z,975.6
2018-08-07T11:49:42.469Z,975.8
2018-08-07T11:50:43.756Z,975.7
2018-08-07T11:51:45.098Z,975.7
2018-08-07T11:52:46.382Z,975.9
2018-08-07T11:53:47.589Z,975.9
2018-08-07T11:54:48.810Z,975.6
2018-08-07T11:55:51.650Z,975.4
2018-08-07T11:56:58.084Z,975.3
2018-08-07T11:58:05.167Z,975.3
2018-08-07T11:59:07.150Z,975.4
2018-08-07T12:00:09.844Z,975.4
2018-08-07T12:01:11.094Z,975.5
2018-08-07T12:02:14.427Z,975.5
2018-08-07T12:03:15.670Z,975.6
2018-08-07T12:04:19.262Z,975.8
2018-08-07T12:05:28.148Z,975.7
2018-08-07T12:06:32.039Z,975.7
2018-08-07T12:07:33.337Z,975.8
2018-08-07T12:08:37.924Z,975.8
2018-08-07T12:09:43.274Z,975.8
2018-08-07T12:10:44.638Z,975.8
2018-08-07T12:11:51.075Z,975.7
2018-08-07T12:12:52.351Z,975.5
2018-08-07T12:13:53.712Z,975.3
2018-08-07T12:14:54.946Z,975.1
2018-08-07T12:15:59.222Z,975.2
2018-08-07T12:17:00.687Z,975.2
2018-08-07T12:18:02.189Z,975.1
2018-08-07T12:19:03.439Z,975.2
2018-08-07T12:20:06.902Z,975.4
2018-08-07T12:21:08.388Z,975.6
2018-08-07T12:22:09.650Z,975.6
2018-08-07T12:23:11.215Z,975.8
2018-08-07T12:24:12.477Z,975.6
2018-08-07T12:25:13.707Z,975.5
2018-08-07T12:26:17.658Z,975.1
2018-08-07T12:27:24.297Z,975.1
2018-08-07T12:28:27.078Z,975.4
2018-08-07T12:29:28.443Z,975.4
2018-08-07T12:30:31.821Z,975.4
2018-08-07T12:31:36.059Z,975.4
2018-08-07T12:32:37.342Z,975.4
2018-08-07T12:33:40.885Z,975.4
2018-08-07T12:34:45.472Z,975.5
2018-08-07T12:35:48.248Z,975.6
2018-08-07T12:36:58.683Z,975.6
2018-08-07T12:38:00.166Z,975.5
2018-08-07T12:39:01.662Z,975.4
2018-08-07T12:40:03.020Z,975.7
2018-08-07T12:41:04.303Z,975.6
2018-08-07T12:42:05.621Z,975.4
2018-08-07T12:43:06.944Z,975.4
2018-08-07T12:44:08.207Z,975.6
2018-08-07T12:45:09.507Z,975.7
2018-08-07T12:46:11.675Z,975.6
2018-08-07T12:47:13.647Z,975.6
2018-08-07T12:48:15.107Z,975.7
2018-08-07T12:49:16.552Z,975.3
2018-08-07T12:50:20.099Z,975.3
2018-08-07T12:51:22.671Z,975.5
2018-08-07T12:52:24.083Z,975.5
2018-08-07T12:53:25.352Z,975.4
2018-08-07T12:54:26.669Z,975.3
2018-08-07T12:55:30.285Z,975.3
2018-08-07T12:56:31.509Z,975
2018-08-07T12:57:32.721Z,974.9
2018-08-07T12:58:34.197Z,975.3
2018-08-07T12:59:35.479Z,975.7
2018-08-07T13:00:36.760Z,975.6
2018-08-07T13:01:37.979Z,975.3
2018-08-07T13:02:39.343Z,975.2
2018-08-07T13:03:40.583Z,975.4
2018-08-07T13:04:42.007Z,975.5
2018-08-07T13:05:43.406Z,975.5
2018-08-07T13:06:45.361Z,975.3
2018-08-07T13:07:46.649Z,975.1
2018-08-07T13:08:49.989Z,975
2018-08-07T13:09:51.230Z,975
2018-08-07T13:10:52.494Z,975
2018-08-07T13:11:53.702Z,975.3
2018-08-07T13:12:54.960Z,975
2018-08-07T13:14:01.285Z,974.9
2018-08-07T13:15:02.525Z,974.9
2018-08-07T13:16:03.768Z,975.2
2018-08-07T13:17:05.250Z,975.2
2018-08-07T13:18:10.335Z,975.3
2018-08-07T13:19:11.558Z,975.3
2018-08-07T13:20:12.896Z,975.4
2018-08-07T13:21:14.490Z,975.3
2018-08-07T13:22:15.856Z,975.3
2018-08-07T13:23:17.147Z,975.5
2018-08-07T13:24:19.133Z,975.6
2018-08-07T13:25:20.338Z,975.6
2018-08-07T13:26:23.252Z,975.7